Time;durP1;ratioP1;P1;durP2;ratioP2;P2;SDS_P1;SDS_P2;PMS_P1;PMS_P2;Temp;Humidity;BMP_temperature;BMP_pressure;BME280_temperature;BME280_humidity;BME280_pressure;Samples;Min_cycle;Max_cycle;Signal;HPM_P1;HPM_P2
2021/01/18 00:01:33;;;;;;;0.77;0.77;;;6.70;99.90;;;;;;5074191;28;20529;-75
2021/01/18 00:03:58;;;;;;;0.70;0.70;;;6.80;99.90;;;;;;5074160;28;20560;-74
2021/01/18 00:06:24;;;;;;;1.77;1.58;;;6.90;99.90;;;;;;5073956;28;20240;-73
2021/01/18 00:08:50;;;;;;;0.82;0.82;;;6.90;99.90;;;;;;5074087;28;20159;-74
2021/01/18 00:11:17;;;;;;;0.70;0.70;;;6.90;99.90;;;;;;5073896;28;20166;-73
2021/01/18 00:13:47;;;;;;;2.67;1.85;;;7.00;99.90;;;;;;5073929;28;20167;-74
2021/01/18 00:16:14;;;;;;;0.70;0.70;;;7.00;99.90;;;;;;5073787;28;20214;-73
2021/01/18 00:18:40;;;;;;;0.65;0.63;;;7.10;99.90;;;;;;5073746;28;20198;-75
2021/01/18 00:21:06;;;;;;;0.40;0.38;;;7.00;99.90;;;;;;5073737;28;20170;-76
2021/01/18 00:23:31;;;;;;;0.82;0.82;;;6.80;99.90;;;;;;5071158;28;20312;-76
2021/01/18 00:25:57;;;;;;;1.58;1.27;;;6.70;99.90;;;;;;5073600;28;20662;-76
2021/01/18 00:28:22;;;;;;;1.30;1.20;;;6.70;99.90;;;;;;5073658;28;20159;-74
2021/01/18 00:30:48;;;;;;;1.42;1.33;;;6.50;99.90;;;;;;5073552;28;20182;-76
2021/01/18 00:33:13;;;;;;;2.08;1.90;;;6.50;99.90;;;;;;5073527;28;20166;-77
2021/01/18 00:35:39;;;;;;;0.98;0.98;;;6.60;99.90;;;;;;5073487;28;20182;-77
2021/01/18 00:38:05;;;;;;;1.08;1.08;;;6.70;99.90;;;;;;5073429;28;20281;-76
2021/01/18 00:40:30;;;;;;;4.65;2.13;;;6.50;99.90;;;;;;5073416;28;20242;-76
2021/01/18 00:42:56;;;;;;;2.13;2.03;;;6.40;99.90;;;;;;5073208;28;20173;-77
2021/01/18 00:45:23;;;;;;;10.27;4.15;;;6.40;99.90;;;;;;5073386;28;20182;-77
2021/01/18 00:47:51;;;;;;;0.50;0.50;;;6.50;99.90;;;;;;5073360;28;20167;-76
2021/01/18 00:50:22;;;;;;;6.90;1.85;;;6.30;99.90;;;;;;5073423;28;20170;-76
2021/01/18 00:52:50;;;;;;;1.23;1.05;;;6.30;99.90;;;;;;5073167;28;20522;-77
2021/01/18 00:55:18;;;;;;;1.08;1.08;;;6.40;99.90;;;;;;5073174;28;20269;-77
2021/01/18 00:57:47;;;;;;;0.88;0.88;;;6.50;99.90;;;;;;5073340;28;20202;-77
2021/01/18 01:00:24;;;;;;;0.70;0.70;;;6.60;99.90;;;;;;5073191;28;20167;-76
2021/01/18 01:02:51;;;;;;;0.47;0.47;;;6.60;99.90;;;;;;5055759;28;20599;-77
2021/01/18 01:05:19;;;;;;;0.43;0.43;;;6.60;99.90;;;;;;5073032;28;20178;-77
2021/01/18 01:07:46;;;;;;;20.90;2.38;;;6.50;99.90;;;;;;5073081;28;20178;-77
2021/01/18 01:10:15;;;;;;;0.40;0.40;;;6.60;99.90;;;;;;5073101;28;20167;-77
2021/01/18 01:12:41;;;;;;;0.88;0.63;;;6.70;99.90;;;;;;5073143;28;20253;-77
2021/01/18 01:15:08;;;;;;;5.35;2.10;;;6.60;99.90;;;;;;5072975;28;20213;-77
2021/01/18 01:17:45;;;;;;;0.82;0.82;;;6.70;99.90;;;;;;5072873;28;20206;-76
2021/01/18 01:20:12;;;;;;;1.40;0.85;;;6.70;99.90;;;;;;5073055;28;20169;-75
2021/01/18 01:22:38;;;;;;;0.82;0.82;;;6.40;99.90;;;;;;5072658;28;20174;-75
2021/01/18 01:25:13;;;;;;;1.23;1.23;;;6.50;99.90;;;;;;5072877;28;20190;-74
2021/01/18 01:27:41;;;;;;;4.20;2.78;;;6.40;99.90;;;;;;5072793;28;20634;-76
2021/01/18 01:30:15;;;;;;;2.25;1.00;;;6.20;99.90;;;;;;5072925;28;20308;-75
2021/01/18 01:32:42;;;;;;;1.45;1.35;;;6.00;99.90;;;;;;5072917;28;20174;-76
2021/01/18 01:35:10;;;;;;;6.15;1.90;;;5.90;99.90;;;;;;5072821;28;20661;-77
2021/01/18 01:37:36;;;;;;;0.85;0.85;;;6.00;99.90;;;;;;5072721;28;20198;-74
2021/01/18 01:40:04;;;;;;;6.80;1.73;;;6.00;99.90;;;;;;5073032;28;20270;-76
2021/01/18 01:42:29;;;;;;;1.40;1.40;;;6.10;99.90;;;;;;5072827;28;20521;-74
2021/01/18 01:44:55;;;;;;;1.35;1.35;;;6.40;99.90;;;;;;5072714;28;20190;-76
2021/01/18 01:47:29;;;;;;;1.42;1.17;;;6.60;99.90;;;;;;5072792;28;20185;-75
2021/01/18 01:49:54;;;;;;;1.50;1.40;;;6.60;99.90;;;;;;5072819;28;20224;-76
2021/01/18 01:52:23;;;;;;;6.70;3.33;;;6.40;99.90;;;;;;5072824;28;20171;-76
2021/01/18 01:54:55;;;;;;;1.23;1.20;;;6.40;99.90;;;;;;5074853;28;20259;-76
2021/01/18 01:57:22;;;;;;;2.00;1.17;;;6.50;99.90;;;;;;5076495;28;20289;-76
2021/01/18 01:59:49;;;;;;;1.70;1.60;;;6.50;99.90;;;;;;5076603;28;20209;-76
2021/01/18 02:02:14;;;;;;;1.65;1.02;;;6.30;99.90;;;;;;5076447;28;20163;-76
2021/01/18 02:04:41;;;;;;;0.55;0.55;;;6.30;99.90;;;;;;5076375;28;20711;-76
2021/01/18 02:07:24;;;;;;;1.42;1.33;;;6.30;99.90;;;;;;5076314;28;20170;-75
2021/01/18 02:09:50;;;;;;;0.98;0.98;;;6.30;99.90;;;;;;5076459;28;20181;-76
2021/01/18 02:12:16;;;;;;;0.88;0.88;;;6.10;99.90;;;;;;5076180;28;20504;-75
2021/01/18 02:15:01;;;;;;;0.50;0.50;;;5.90;99.90;;;;;;5076157;28;20197;-76
2021/01/18 02:18:04;;;;;;;0.85;0.85;;;6.10;99.90;;;;;;5076061;28;20232;-76
2021/01/18 02:21:03;;;;;;;0.98;0.98;;;6.20;99.90;;;;;;5076071;28;20198;-76
2021/01/18 02:23:47;;;;;;;0.85;0.85;;;6.10;99.90;;;;;;5075972;28;20214;-76
2021/01/18 02:26:23;;;;;;;1.38;1.33;;;6.20;99.90;;;;;;5057943;28;20205;-77
2021/01/18 02:29:13;;;;;;;1.45;1.35;;;6.20;99.90;;;;;;5075916;28;20158;-76
2021/01/18 02:32:16;;;;;;;13.00;0.98;;;6.00;99.90;;;;;;5076036;28;20224;-76
2021/01/18 02:34:53;;;;;;;1.13;1.13;;;6.20;99.90;;;;;;5076078;28;20239;-76
2021/01/18 02:37:43;;;;;;;2.75;0.90;;;6.10;99.90;;;;;;5076365;28;20214;-76
2021/01/18 02:40:18;;;;;;;0.98;0.98;;;6.00;99.90;;;;;;5076357;28;20171;-75
2021/01/18 02:42:59;;;;;;;0.85;0.85;;;6.00;99.90;;;;;;5076265;28;20245;-76
2021/01/18 02:45:25;;;;;;;0.95;0.95;;;5.90;99.90;;;;;;5076018;28;20209;-75
2021/01/18 02:47:51;;;;;;;1.65;1.55;;;5.70;99.90;;;;;;5076042;28;20163;-75
2021/01/18 02:50:19;;;;;;;2.38;2.17;;;5.60;99.90;;;;;;5076151;28;20224;-76
2021/01/18 02:52:45;;;;;;;0.70;0.70;;;5.50;99.90;;;;;;5076100;28;20169;-76
2021/01/18 02:55:12;;;;;;;0.77;0.77;;;5.50;99.90;;;;;;5075931;28;20194;-76
2021/01/18 02:57:43;;;;;;;1.00;1.00;;;5.60;99.90;;;;;;5075689;28;20641;-75
2021/01/18 03:00:15;;;;;;;0.40;0.40;;;5.70;99.90;;;;;;5075922;28;20162;-76
2021/01/18 03:03:18;;;;;;;0.77;0.60;;;5.60;99.90;;;;;;5075839;28;20197;-76
2021/01/18 03:05:53;;;;;;;0.80;0.80;;;5.70;99.90;;;;;;5075799;28;20186;-76
2021/01/18 03:08:33;;;;;;;1.50;1.38;;;5.70;99.90;;;;;;5075626;28;20162;-75
2021/01/18 03:11:09;;;;;;;1.05;1.05;;;5.50;99.90;;;;;;5075780;28;20167;-76
2021/01/18 03:13:46;;;;;;;0.43;0.43;;;5.60;99.90;;;;;;5075563;28;20180;-75
2021/01/18 03:16:39;;;;;;;0.50;0.50;;;5.60;99.90;;;;;;5075146;28;20198;-75
2021/01/18 03:19:06;;;;;;;0.55;0.43;;;5.50;99.90;;;;;;5071941;28;20305;-76
2021/01/18 03:21:32;;;;;;;0.55;0.55;;;5.50;99.90;;;;;;5075185;28;20208;-74
2021/01/18 03:23:58;;;;;;;0.25;0.25;;;5.50;99.90;;;;;;5075457;28;20214;-76
2021/01/18 03:26:25;;;;;;;0.60;0.60;;;5.50;99.90;;;;;;5075314;28;20231;-75
2021/01/18 03:28:52;;;;;;;1.48;0.98;;;5.40;99.90;;;;;;5057408;28;20154;-74
2021/01/18 03:31:17;;;;;;;0.93;0.93;;;5.40;99.90;;;;;;5075199;28;20159;-76
2021/01/18 03:33:43;;;;;;;1.05;1.05;;;5.60;99.90;;;;;;5056976;28;20277;-75
2021/01/18 03:36:08;;;;;;;2.28;1.48;;;5.60;99.90;;;;;;5075190;28;20195;-76
2021/01/18 03:38:34;;;;;;;5.10;1.75;;;5.50;99.90;;;;;;5074815;28;20703;-75
2021/01/18 03:41:01;;;;;;;0.85;0.70;;;5.40;99.90;;;;;;5074841;28;20198;-76
2021/01/18 03:43:28;;;;;;;1.20;1.00;;;5.60;99.90;;;;;;5075072;28;20171;-75
2021/01/18 03:45:53;;;;;;;0.85;0.85;;;5.60;99.90;;;;;;5074795;28;20187;-76
2021/01/18 03:48:19;;;;;;;5.35;1.48;;;5.50;99.90;;;;;;5075052;28;20519;-76
2021/01/18 03:50:45;;;;;;;0.50;0.50;;;5.50;99.90;;;;;;5074928;28;20499;-76
2021/01/18 03:53:11;;;;;;;0.52;0.52;;;5.30;99.90;;;;;;5074947;28;20177;-76
2021/01/18 03:55:38;;;;;;;0.20;0.20;;;5.20;99.90;;;;;;5074673;28;20201;-75
2021/01/18 03:58:03;;;;;;;1.38;1.10;;;5.30;99.90;;;;;;5074293;28;20239;-74
2021/01/18 04:00:31;;;;;;;1.73;1.20;;;5.10;99.90;;;;;;5074388;28;20252;-75
2021/01/18 04:02:57;;;;;;;2.90;1.50;;;5.20;99.90;;;;;;5074280;28;20250;-73
2021/01/18 04:05:24;;;;;;;0.55;0.55;;;5.30;99.90;;;;;;5074604;28;20342;-76
2021/01/18 04:07:51;;;;;;;0.70;0.70;;;5.40;99.90;;;;;;5074621;28;20228;-75
2021/01/18 04:10:19;;;;;;;2.13;0.85;;;5.30;99.90;;;;;;5074489;28;20283;-76
2021/01/18 04:12:47;;;;;;;3.25;2.28;;;5.30;99.90;;;;;;5074526;28;20166;-76
2021/01/18 04:15:14;;;;;;;1.92;1.42;;;5.10;99.90;;;;;;5074189;28;20717;-74
2021/01/18 04:17:48;;;;;;;1.05;1.05;;;4.80;99.90;;;;;;5073510;28;20209;-76
2021/01/18 04:20:15;;;;;;;1.30;1.27;;;4.70;99.90;;;;;;5056343;28;20161;-76
2021/01/18 04:22:49;;;;;;;0.35;0.35;;;4.70;99.90;;;;;;5073916;28;20296;-74
2021/01/18 04:25:16;;;;;;;3.70;1.20;;;4.70;99.90;;;;;;5073987;28;20190;-75
2021/01/18 04:27:56;;;;;;;0.90;0.90;;;4.90;99.90;;;;;;5073630;28;20171;-76
2021/01/18 04:30:23;;;;;;;1.50;1.42;;;4.90;99.90;;;;;;5073943;28;20739;-76
2021/01/18 04:32:56;;;;;;;1.08;0.85;;;4.80;99.90;;;;;;5074106;28;20162;-77
2021/01/18 04:35:24;;;;;;;1.00;0.90;;;4.80;99.90;;;;;;5074243;28;20190;-77
2021/01/18 04:37:49;;;;;;;2.90;1.17;;;4.70;99.90;;;;;;5073589;28;20245;-76
2021/01/18 04:40:23;;;;;;;11.30;2.25;;;4.80;99.90;;;;;;5073598;28;20175;-75
2021/01/18 04:42:49;;;;;;;0.95;0.95;;;4.80;99.90;;;;;;5073823;28;20226;-76
2021/01/18 04:45:17;;;;;;;1.27;1.27;;;4.60;99.90;;;;;;5073664;28;20198;-76
2021/01/18 04:47:48;;;;;;;1.15;0.85;;;4.70;99.90;;;;;;5073730;28;20224;-75
2021/01/18 04:50:15;;;;;;;0.68;0.68;;;4.60;99.90;;;;;;5073656;28;20171;-76
2021/01/18 04:52:54;;;;;;;0.47;0.47;;;4.70;99.90;;;;;;5073683;28;20220;-77
2021/01/18 04:55:29;;;;;;;5.25;2.25;;;4.70;99.90;;;;;;5074173;28;20193;-76
2021/01/18 04:58:27;;;;;;;0.80;0.80;;;4.70;99.90;;;;;;5073403;28;20202;-76
2021/01/18 05:00:55;;;;;;;2.38;1.00;;;4.80;99.90;;;;;;5073422;28;20210;-76
2021/01/18 05:03:25;;;;;;;0.30;0.30;;;4.70;99.90;;;;;;5073494;28;20170;-76
2021/01/18 05:05:51;;;;;;;0.45;0.45;;;4.60;99.90;;;;;;5073479;28;20603;-76
2021/01/18 05:08:31;;;;;;;1.33;1.23;;;4.70;99.90;;;;;;5073439;28;20154;-76
2021/01/18 05:10:57;;;;;;;0.55;0.55;;;4.80;99.90;;;;;;5073493;28;20174;-77
2021/01/18 05:13:23;;;;;;;2.25;2.15;;;4.70;99.90;;;;;;5073556;28;20641;-76
2021/01/18 05:15:51;;;;;;;4.15;1.50;;;4.90;99.90;;;;;;5073177;28;20265;-76
2021/01/18 05:18:17;;;;;;;0.30;0.30;;;4.70;99.90;;;;;;5073175;28;20194;-75
2021/01/18 05:20:43;;;;;;;40.20;2.05;;;4.70;99.90;;;;;;5073138;28;20299;-76
2021/01/18 05:23:08;;;;;;;0.88;0.88;;;4.80;99.90;;;;;;5073359;28;20214;-76
2021/01/18 05:25:35;;;;;;;0.85;0.85;;;4.90;99.90;;;;;;5073246;28;20193;-76
2021/01/18 05:28:08;;;;;;;0.52;0.52;;;4.80;99.90;;;;;;5073065;28;20193;-76
2021/01/18 05:30:42;;;;;;;0.65;0.65;;;4.80;99.90;;;;;;5076843;28;20626;-77
2021/01/18 05:33:09;;;;;;;1.25;1.20;;;4.70;99.90;;;;;;5077239;28;20159;-77
2021/01/18 05:35:39;;;;;;;1.60;1.15;;;4.50;99.90;;;;;;5077131;28;20178;-75
2021/01/18 05:38:11;;;;;;;4.68;1.85;;;4.50;99.90;;;;;;5077005;28;20198;-76
2021/01/18 05:40:48;;;;;;;0.90;0.88;;;4.60;99.90;;;;;;5076777;28;20194;-75
2021/01/18 05:43:15;;;;;;;13.85;1.35;;;4.60;99.90;;;;;;5077018;28;20235;-76
2021/01/18 05:45:46;;;;;;;0.70;0.70;;;4.40;99.90;;;;;;5042357;28;20209;-76
2021/01/18 05:48:23;;;;;;;2.50;1.33;;;4.60;99.90;;;;;;5077199;28;20336;-77
2021/01/18 05:50:57;;;;;;;17.98;2.78;;;4.60;99.90;;;;;;5076838;28;20158;-77
2021/01/18 05:53:23;;;;;;;0.28;0.28;;;4.70;99.90;;;;;;5077123;28;20170;-77
2021/01/18 05:55:49;;;;;;;0.38;0.38;;;4.80;99.90;;;;;;5077032;28;20689;-76
2021/01/18 05:58:29;;;;;;;22.13;1.38;;;4.90;99.90;;;;;;5077048;28;20186;-76
2021/01/18 06:00:55;;;;;;;2.15;1.30;;;4.70;99.90;;;;;;5059236;28;20165;-75
2021/01/18 06:03:29;;;;;;;1.48;1.38;;;4.70;99.90;;;;;;5075358;28;20166;-76
2021/01/18 06:05:55;;;;;;;1.23;1.23;;;4.50;99.90;;;;;;5076681;28;20182;-76
2021/01/18 06:08:23;;;;;;;5.00;2.30;;;4.70;99.90;;;;;;5076923;28;20276;-77
2021/01/18 06:10:52;;;;;;;1.00;1.00;;;4.60;99.90;;;;;;5076677;28;20261;-76
2021/01/18 06:13:22;;;;;;;1.88;0.77;;;4.50;99.90;;;;;;5076809;28;20205;-76
2021/01/18 06:15:49;;;;;;;1.23;0.73;;;4.40;99.90;;;;;;5076618;28;20710;-77
2021/01/18 06:18:16;;;;;;;2.00;1.25;;;4.50;99.90;;;;;;5076208;28;20194;-76
2021/01/18 06:20:43;;;;;;;2.75;1.08;;;4.60;99.90;;;;;;5076503;28;20169;-76
2021/01/18 06:23:09;;;;;;;0.63;0.63;;;4.60;99.90;;;;;;5076353;28;20217;-77
2021/01/18 06:25:37;;;;;;;1.50;1.42;;;4.50;99.90;;;;;;5076264;28;20190;-76
2021/01/18 06:28:04;;;;;;;0.47;0.47;;;4.50;99.90;;;;;;5076321;28;20170;-77
2021/01/18 06:30:31;;;;;;;0.20;0.20;;;4.70;99.90;;;;;;5076174;28;20170;-74
2021/01/18 06:32:59;;;;;;;0.30;0.30;;;4.70;99.90;;;;;;5075810;28;20173;-75
2021/01/18 06:35:32;;;;;;;0.60;0.60;;;4.60;99.90;;;;;;5074015;28;20256;-77
2021/01/18 06:38:04;;;;;;;0.52;0.52;;;4.50;99.90;;;;;;5075832;28;20195;-77
2021/01/18 06:40:40;;;;;;;6.72;1.50;;;4.60;99.90;;;;;;5075215;28;20163;-77
2021/01/18 06:43:08;;;;;;;7.97;1.42;;;4.70;99.90;;;;;;5075856;28;20699;-76
2021/01/18 06:45:36;;;;;;;2.55;1.92;;;4.70;99.90;;;;;;5075856;28;20189;-75
2021/01/18 06:48:04;;;;;;;0.20;0.20;;;4.70;99.90;;;;;;5075716;28;20174;-76
2021/01/18 06:50:38;;;;;;;0.60;0.60;;;4.80;99.90;;;;;;5075246;28;20232;-77
2021/01/18 06:53:24;;;;;;;0.93;0.88;;;4.80;99.90;;;;;;5075408;28;20626;-77
2021/01/18 06:56:15;;;;;;;0.52;0.52;;;4.80;99.90;;;;;;5075298;28;20269;-75
2021/01/18 06:59:01;;;;;;;0.40;0.40;;;4.80;99.90;;;;;;5075496;28;20669;-77
2021/01/18 07:01:36;;;;;;;0.75;0.75;;;4.90;99.90;;;;;;5075183;28;20661;-78
2021/01/18 07:04:14;;;;;;;32.92;2.17;;;4.90;99.90;;;;;;5075336;28;20166;-76
2021/01/18 07:06:39;;;;;;;0.50;0.50;;;4.80;99.90;;;;;;5075593;28;20186;-76
2021/01/18 07:09:13;;;;;;;1.20;1.15;;;4.90;99.90;;;;;;5075265;28;20486;-76
2021/01/18 07:11:40;;;;;;;0.30;0.30;;;4.70;99.90;;;;;;5075362;28;20185;-75
2021/01/18 07:14:08;;;;;;;0.43;0.43;;;4.70;99.90;;;;;;5074771;28;20163;-76
2021/01/18 07:16:34;;;;;;;0.98;0.98;;;4.80;99.90;;;;;;5075161;28;20680;-76
2021/01/18 07:19:01;;;;;;;0.70;0.70;;;5.00;99.90;;;;;;5074913;28;20198;-77
2021/01/18 07:21:41;;;;;;;0.55;0.55;;;4.80;99.90;;;;;;5074511;28;20212;-76
2021/01/18 07:24:12;;;;;;;0.65;0.65;;;4.60;99.90;;;;;;5074634;28;20733;-76
2021/01/18 07:26:53;;;;;;;1.80;1.70;;;4.70;99.90;;;;;;5074539;28;20192;-75
2021/01/18 07:29:21;;;;;;;3.97;0.70;;;4.70;99.90;;;;;;5056768;28;20253;-76
2021/01/18 07:31:49;;;;;;;0.35;0.35;;;4.50;99.90;;;;;;5074436;28;20162;-76
2021/01/18 07:34:17;;;;;;;1.05;1.05;;;4.60;99.90;;;;;;5074573;28;20240;-76
2021/01/18 07:36:43;;;;;;;1.27;1.08;;;4.70;99.90;;;;;;5056528;28;20205;-77
2021/01/18 07:39:26;;;;;;;4.18;1.13;;;4.70;99.90;;;;;;5073894;28;20191;-76
2021/01/18 07:41:52;;;;;;;1.00;1.00;;;4.80;99.90;;;;;;5074599;28;20209;-75
2021/01/18 07:44:32;;;;;;;0.43;0.43;;;4.80;99.90;;;;;;5074522;28;20159;-77
2021/01/18 07:47:09;;;;;;;0.95;0.43;;;4.70;99.90;;;;;;5074619;28;20171;-79
2021/01/18 07:49:52;;;;;;;0.40;0.40;;;4.90;99.90;;;;;;5074608;28;20193;-77
2021/01/18 07:52:29;;;;;;;0.35;0.35;;;5.00;99.90;;;;;;5073922;28;20174;-77
2021/01/18 07:54:56;;;;;;;2.63;0.85;;;5.00;99.90;;;;;;5073606;28;20244;-78
2021/01/18 07:57:31;;;;;;;0.70;0.70;;;5.00;99.90;;;;;;5073884;28;20184;-78
2021/01/18 08:00:18;;;;;;;0.30;0.30;;;4.90;99.90;;;;;;5074335;28;20176;-79
2021/01/18 08:03:14;;;;;;;0.43;0.43;;;5.00;99.90;;;;;;5056397;28;20163;-76
2021/01/18 08:05:41;;;;;;;1.10;1.10;;;4.90;99.90;;;;;;5063229;28;20587;-76
2021/01/18 08:08:07;;;;;;;0.75;0.75;;;5.00;99.90;;;;;;5074066;28;20159;-75
2021/01/18 08:10:48;;;;;;;0.70;0.70;;;5.10;99.90;;;;;;5071169;28;20185;-79
2021/01/18 08:13:51;;;;;;;0.35;0.35;;;4.90;99.90;;;;;;5072564;28;20277;-80
2021/01/18 08:16:28;;;;;;;0.55;0.55;;;4.90;99.90;;;;;;5071788;28;20519;-77
2021/01/18 08:18:59;;;;;;;0.30;0.30;;;4.90;99.90;;;;;;5072972;28;20616;-79
2021/01/18 08:21:34;;;;;;;0.50;0.50;;;5.10;99.90;;;;;;5054886;28;20171;-83
2021/01/18 08:24:09;;;;;;;0.22;0.22;;;5.00;99.90;;;;;;5072714;28;20634;-83
2021/01/18 08:26:53;;;;;;;0.52;0.52;;;5.20;99.90;;;;;;5072973;28;20181;-82
2021/01/18 08:29:51;;;;;;;0.50;0.50;;;5.20;99.90;;;;;;5072910;28;20158;-83
2021/01/18 08:32:25;;;;;;;0.65;0.65;;;5.40;99.90;;;;;;5072788;28;20155;-78
2021/01/18 08:34:56;;;;;;;0.60;0.60;;;5.30;99.90;;;;;;5072109;28;20269;-80
2021/01/18 08:37:22;;;;;;;1.02;1.02;;;5.10;99.90;;;;;;5072607;28;20173;-75
2021/01/18 08:39:56;;;;;;;4.70;1.77;;;5.00;99.90;;;;;;5070733;28;20516;-76
2021/01/18 08:42:31;;;;;;;0.43;0.40;;;5.10;99.90;;;;;;5072447;28;20235;-74
2021/01/18 08:44:58;;;;;;;6.68;2.33;;;5.30;99.90;;;;;;5071807;28;20301;-77
2021/01/18 08:47:45;;;;;;;1.08;1.05;;;5.40;99.90;;;;;;5072247;28;20212;-76
2021/01/18 08:50:20;;;;;;;1.10;0.77;;;5.40;99.90;;;;;;5072096;28;20170;-75
2021/01/18 08:52:57;;;;;;;1.77;0.68;;;5.30;99.90;;;;;;5054517;28;20271;-80
2021/01/18 08:55:29;;;;;;;1.05;0.80;;;5.40;99.90;;;;;;5072051;28;20193;-79
2021/01/18 08:57:57;;;;;;;1.45;1.35;;;5.60;99.90;;;;;;5071781;28;20201;-80
2021/01/18 09:00:23;;;;;;;0.75;0.75;;;5.50;99.90;;;;;;5053992;28;20641;-76
2021/01/18 09:02:49;;;;;;;0.30;0.30;;;5.70;99.90;;;;;;5071676;28;20216;-77
2021/01/18 09:05:25;;;;;;;0.52;0.52;;;5.70;99.90;;;;;;5071458;28;20304;-77
2021/01/18 09:07:51;;;;;;;1.13;1.05;;;5.90;99.90;;;;;;5071824;28;20677;-77
2021/01/18 09:10:21;;;;;;;16.55;2.03;;;6.00;99.90;;;;;;5071818;28;20190;-76
2021/01/18 09:12:48;;;;;;;0.28;0.28;;;6.20;99.90;;;;;;5071775;28;20163;-76
2021/01/18 09:15:16;;;;;;;0.60;0.60;;;6.10;99.90;;;;;;5071765;28;20182;-77
2021/01/18 09:17:42;;;;;;;0.40;0.35;;;6.10;99.90;;;;;;5068599;28;20198;-77
2021/01/18 09:20:09;;;;;;;0.35;0.35;;;5.90;99.90;;;;;;5068493;28;20529;-76
2021/01/18 09:22:41;;;;;;;0.50;0.50;;;5.80;99.90;;;;;;5071500;28;20686;-76
2021/01/18 09:25:07;;;;;;;0.50;0.50;;;5.90;99.90;;;;;;5071110;28;20563;-77
2021/01/18 09:27:35;;;;;;;0.93;0.93;;;5.80;99.90;;;;;;5071795;28;20166;-80
2021/01/18 09:30:06;;;;;;;0.45;0.45;;;6.00;99.90;;;;;;5053419;28;20196;-78
2021/01/18 09:32:32;;;;;;;0.52;0.52;;;6.10;99.90;;;;;;5070866;28;20193;-77
2021/01/18 09:35:14;;;;;;;1.02;1.02;;;6.10;99.90;;;;;;5071773;28;20540;-76
2021/01/18 09:37:44;;;;;;;1.10;1.10;;;6.20;99.90;;;;;;5071664;28;20190;-74
2021/01/18 09:40:11;;;;;;;4.28;0.85;;;6.10;99.90;;;;;;5071383;28;20166;-81
2021/01/18 09:42:37;;;;;;;1.95;1.70;;;6.30;99.90;;;;;;5071437;28;20232;-83
2021/01/18 09:45:04;;;;;;;0.52;0.45;;;6.40;99.90;;;;;;5071699;28;20641;-78
2021/01/18 09:47:31;;;;;;;1.17;0.95;;;6.30;99.90;;;;;;5070677;28;20178;-78
2021/01/18 09:50:12;;;;;;;0.20;0.20;;;6.40;99.90;;;;;;5051220;28;20250;-78
2021/01/18 09:52:43;;;;;;;0.30;0.30;;;6.60;99.90;;;;;;5051329;28;20177;-78
2021/01/18 09:55:20;;;;;;;9.75;1.17;;;6.60;99.90;;;;;;5051081;28;20231;-77
2021/01/18 09:58:00;;;;;;;2.72;1.38;;;6.60;99.90;;;;;;5051377;28;20199;-77
2021/01/18 10:00:29;;;;;;;0.50;0.50;;;6.50;99.90;;;;;;5050840;28;20182;-77
2021/01/18 10:02:58;;;;;;;22.23;2.67;;;6.70;99.90;;;;;;5065587;28;20185;-77
2021/01/18 10:05:36;;;;;;;0.55;0.55;;;6.70;99.90;;;;;;5069739;28;20190;-78
2021/01/18 10:08:10;;;;;;;4.05;1.02;;;6.60;99.90;;;;;;5068541;28;20178;-78
2021/01/18 10:10:44;;;;;;;0.20;0.20;;;6.60;99.90;;;;;;5070578;28;20278;-77
2021/01/18 10:13:13;;;;;;;0.60;0.60;;;6.80;99.90;;;;;;5070265;28;20174;-77
2021/01/18 10:15:39;;;;;;;1.02;1.02;;;6.80;99.90;;;;;;5073046;28;20210;-77
2021/01/18 10:18:05;;;;;;;2.10;0.98;;;6.80;99.90;;;;;;5048509;28;20713;-77
2021/01/18 10:20:31;;;;;;;0.52;0.52;;;6.80;99.90;;;;;;5069161;28;20170;-77
2021/01/18 10:22:58;;;;;;;3.00;1.00;;;6.90;99.90;;;;;;5074331;28;20218;-77
2021/01/18 10:25:28;;;;;;;0.28;0.28;;;6.90;99.90;;;;;;5074457;28;20209;-77
2021/01/18 10:27:56;;;;;;;0.50;0.50;;;6.90;99.90;;;;;;5073900;28;20178;-77
2021/01/18 10:30:25;;;;;;;1.02;0.93;;;7.10;99.90;;;;;;5074518;28;20163;-77
2021/01/18 10:32:53;;;;;;;4.72;1.65;;;7.20;99.90;;;;;;5062121;28;20171;-82
2021/01/18 10:35:21;;;;;;;0.85;0.85;;;7.30;99.90;;;;;;5074684;28;21004;-76
2021/01/18 10:37:47;;;;;;;0.20;0.20;;;7.10;99.90;;;;;;5072406;28;20195;-76
2021/01/18 10:40:13;;;;;;;15.35;2.80;;;7.20;99.90;;;;;;5056902;28;20181;-78
2021/01/18 10:42:48;;;;;;;3.10;1.77;;;7.20;99.90;;;;;;5062816;28;20178;-74
2021/01/18 10:45:19;;;;;;;1.63;1.27;;;7.30;99.90;;;;;;5081405;28;20231;-76
2021/01/18 10:48:01;;;;;;;6.70;2.03;;;7.30;99.90;;;;;;5074249;28;20170;-76
2021/01/18 10:50:29;;;;;;;1.77;1.65;;;7.30;99.90;;;;;;5074493;28;20167;-76
2021/01/18 10:53:08;;;;;;;4.45;1.88;;;7.30;99.90;;;;;;5073690;28;20178;-76
2021/01/18 10:55:36;;;;;;;0.57;0.52;;;7.20;99.90;;;;;;5055863;28;20542;-76
2021/01/18 10:58:01;;;;;;;0.50;0.47;;;7.20;99.90;;;;;;5076228;28;20724;-77
2021/01/18 11:00:28;;;;;;;0.70;0.70;;;7.20;99.90;;;;;;5094247;28;20300;-76
2021/01/18 11:03:03;;;;;;;4.55;1.38;;;7.00;99.90;;;;;;5060399;28;20213;-77
2021/01/18 11:05:34;;;;;;;0.40;0.40;;;7.10;99.90;;;;;;5054481;28;20182;-77
2021/01/18 11:08:03;;;;;;;0.55;0.55;;;7.30;99.90;;;;;;5054228;28;20173;-77
2021/01/18 11:10:29;;;;;;;0.52;0.52;;;7.40;99.90;;;;;;5036556;28;20178;-77
2021/01/18 11:13:13;;;;;;;1.45;0.85;;;7.60;99.90;;;;;;5061527;28;20197;-78
2021/01/18 11:15:42;;;;;;;0.55;0.55;;;7.50;99.90;;;;;;5074642;28;20522;-77
2021/01/18 11:18:09;;;;;;;0.77;0.55;;;7.50;99.90;;;;;;5056178;28;20202;-77
2021/01/18 11:20:36;;;;;;;0.68;0.45;;;7.60;99.90;;;;;;5073989;28;20177;-77
2021/01/18 11:23:02;;;;;;;0.95;0.90;;;7.40;99.90;;;;;;5073977;28;20213;-76
2021/01/18 11:25:30;;;;;;;0.68;0.68;;;7.60;99.90;;;;;;5066423;28;20191;-74
2021/01/18 11:28:17;;;;;;;14.25;1.83;;;7.70;99.90;;;;;;5052227;28;20183;-75
2021/01/18 11:30:44;;;;;;;1.20;0.63;;;7.80;99.90;;;;;;5053654;28;20170;-76
2021/01/18 11:33:11;;;;;;;1.70;1.27;;;7.70;99.90;;;;;;5054379;28;20630;-76
2021/01/18 11:35:41;;;;;;;0.60;0.60;;;7.60;99.90;;;;;;5054100;28;20195;-79
2021/01/18 11:38:09;;;;;;;0.28;0.28;;;7.70;99.90;;;;;;5054452;28;20202;-76
2021/01/18 11:40:34;;;;;;;14.90;0.93;;;7.80;99.90;;;;;;5052818;28;20515;-76
2021/01/18 11:43:00;;;;;;;1.85;1.15;;;7.80;99.90;;;;;;5054168;28;20175;-76
2021/01/18 11:45:26;;;;;;;0.90;0.90;;;7.70;99.90;;;;;;5054364;28;20198;-75
2021/01/18 11:47:52;;;;;;;1.05;1.05;;;7.80;99.90;;;;;;5053837;28;20175;-75
2021/01/18 11:50:18;;;;;;;0.30;0.30;;;7.90;99.90;;;;;;5053553;28;20494;-73
2021/01/18 11:52:45;;;;;;;1.02;1.02;;;7.90;99.90;;;;;;5054198;28;20197;-77
2021/01/18 11:55:13;;;;;;;2.42;1.80;;;8.00;99.90;;;;;;5056730;28;20277;-76
2021/01/18 11:57:47;;;;;;;0.40;0.40;;;8.00;99.90;;;;;;5073687;28;20213;-76
2021/01/18 12:00:27;;;;;;;0.50;0.50;;;7.90;99.90;;;;;;5073833;28;20253;-76
2021/01/18 12:02:59;;;;;;;0.30;0.30;;;7.90;99.90;;;;;;5073448;28;20233;-77
2021/01/18 12:05:27;;;;;;;0.43;0.43;;;7.90;99.90;;;;;;5073910;28;20263;-76
2021/01/18 12:07:57;;;;;;;0.93;0.93;;;8.00;99.90;;;;;;5073326;28;20249;-76
2021/01/18 12:10:24;;;;;;;0.45;0.45;;;8.00;99.90;;;;;;5073497;28;20190;-77
2021/01/18 12:12:50;;;;;;;0.65;0.65;;;8.00;99.90;;;;;;5073505;28;20159;-79
2021/01/18 12:15:16;;;;;;;0.57;0.57;;;8.10;99.90;;;;;;5072993;28;20193;-75
2021/01/18 12:17:42;;;;;;;1.98;1.42;;;7.90;99.90;;;;;;5073283;28;20661;-76
2021/01/18 12:20:14;;;;;;;0.70;0.70;;;7.90;99.90;;;;;;5073347;28;20171;-76
2021/01/18 12:22:39;;;;;;;0.68;0.63;;;7.90;99.90;;;;;;5073335;28;20167;-76
2021/01/18 12:25:06;;;;;;;3.20;1.67;;;7.80;99.90;;;;;;5072696;28;20208;-75
2021/01/18 12:27:32;;;;;;;0.88;0.88;;;7.70;99.90;;;;;;5073304;28;20170;-76
2021/01/18 12:29:58;;;;;;;0.98;0.90;;;7.80;99.90;;;;;;5073339;28;20186;-77
2021/01/18 12:32:24;;;;;;;1.60;0.68;;;7.80;99.90;;;;;;5070521;28;20179;-75
2021/01/18 12:34:50;;;;;;;1.95;1.23;;;7.70;99.90;;;;;;5072118;28;20553;-75
2021/01/18 12:37:16;;;;;;;0.65;0.65;;;7.80;99.90;;;;;;5072348;28;20175;-75
2021/01/18 12:39:42;;;;;;;25.98;2.20;;;8.00;99.90;;;;;;5072227;28;20206;-76
2021/01/18 12:42:07;;;;;;;0.95;0.63;;;7.90;99.90;;;;;;5072699;28;20575;-76
2021/01/18 12:44:33;;;;;;;0.63;0.63;;;7.70;99.90;;;;;;5072696;28;20197;-76
2021/01/18 12:47:04;;;;;;;0.43;0.43;;;7.70;99.90;;;;;;5072592;28;20167;-76
2021/01/18 12:49:30;;;;;;;1.05;0.85;;;7.90;99.90;;;;;;5072381;28;20170;-75
2021/01/18 12:51:56;;;;;;;3.17;1.90;;;8.00;99.90;;;;;;5072600;28;20262;-76
2021/01/18 12:54:22;;;;;;;0.80;0.80;;;7.90;99.90;;;;;;5072492;28;20169;-77
2021/01/18 12:56:51;;;;;;;2.67;1.98;;;7.90;99.90;;;;;;5072067;28;20174;-75
2021/01/18 12:59:17;;;;;;;0.38;0.38;;;8.00;99.90;;;;;;5054380;28;20230;-75
2021/01/18 13:01:43;;;;;;;2.05;1.50;;;8.10;99.90;;;;;;5071660;28;20162;-76
2021/01/18 13:04:08;;;;;;;4.28;0.63;;;8.20;99.90;;;;;;5072651;28;20224;-75
2021/01/18 13:06:37;;;;;;;3.05;1.55;;;8.20;99.90;;;;;;5086600;28;20182;-75
2021/01/18 13:09:04;;;;;;;0.55;0.55;;;8.20;99.90;;;;;;5091689;28;20646;-74
2021/01/18 13:11:30;;;;;;;2.60;1.70;;;8.10;99.90;;;;;;5092071;28;20162;-74
2021/01/18 13:13:55;;;;;;;1.27;0.80;;;8.10;99.90;;;;;;5091821;28;20188;-75
2021/01/18 13:16:21;;;;;;;1.45;1.45;;;8.10;99.90;;;;;;5092288;28;20181;-76